createdAt,value
2018-04-06T00:00:53.078Z,0.00
2018-04-06T00:01:53.293Z,0.00
2018-04-06T00:02:53.107Z,0.00
2018-04-06T00:03:53.063Z,0.00
2018-04-06T00:04:53.077Z,0.00
2018-04-06T00:05:52.924Z,0.00
2018-04-06T00:06:52.964Z,0.00
2018-04-06T00:07:53.027Z,0.00
2018-04-06T00:08:52.942Z,0.00
2018-04-06T00:09:52.900Z,0.00
2018-04-06T00:10:52.914Z,0.00
2018-04-06T00:11:52.843Z,0.00
2018-04-06T00:12:52.781Z,0.00
2018-04-06T00:13:52.863Z,0.00
2018-04-06T00:14:52.877Z,0.00
2018-04-06T00:15:52.936Z,0.00
2018-04-06T00:16:52.770Z,0.00
2018-04-06T00:17:52.817Z,0.00
2018-04-06T00:18:52.717Z,0.00
2018-04-06T00:19:52.621Z,0.00
2018-04-06T00:20:52.732Z,0.00
2018-04-06T00:21:52.551Z,0.00
2018-04-06T00:22:52.663Z,0.00
2018-04-06T00:23:52.794Z,0.00
2018-04-06T00:24:52.602Z,0.00
2018-04-06T00:25:52.472Z,0.00
2018-04-06T00:26:52.540Z,0.00
2018-04-06T00:27:52.608Z,0.00
2018-04-06T00:28:52.555Z,0.00
2018-04-06T00:29:52.507Z,0.00
2018-04-06T00:30:52.363Z,0.00
2018-04-06T00:31:52.464Z,0.00
2018-04-06T00:32:52.567Z,0.00
2018-04-06T00:33:52.412Z,0.00
2018-04-06T00:34:52.562Z,0.00
2018-04-06T00:35:52.538Z,0.00
2018-04-06T00:36:52.391Z,0.00
2018-04-06T00:37:52.264Z,0.00
2018-04-06T00:38:52.324Z,0.00
2018-04-06T00:39:52.326Z,0.00
2018-04-06T00:40:52.159Z,0.00
2018-04-06T00:41:52.301Z,0.00
2018-04-06T00:42:52.402Z,0.00
2018-04-06T00:43:52.283Z,0.00
2018-04-06T00:44:52.166Z,0.00
2018-04-06T00:45:52.070Z,0.00
2018-04-06T00:46:52.017Z,0.00
2018-04-06T00:47:52.014Z,0.00
2018-04-06T00:48:52.010Z,0.00
2018-04-06T00:49:51.997Z,0.00
2018-04-06T00:50:51.907Z,0.00
2018-04-06T00:51:51.940Z,0.00
2018-04-06T00:52:51.862Z,0.00
2018-04-06T00:53:51.903Z,0.00
2018-04-06T00:54:51.808Z,0.00
2018-04-06T00:55:51.755Z,0.00
2018-04-06T00:56:51.886Z,0.00
2018-04-06T00:57:51.927Z,0.00
2018-04-06T00:58:51.755Z,0.00
2018-04-06T00:59:51.820Z,0.00
2018-04-06T01:00:51.659Z,0.00
2018-04-06T01:01:51.705Z,0.00
2018-04-06T01:02:51.619Z,0.00
2018-04-06T01:03:51.582Z,0.00
2018-04-06T01:04:51.637Z,0.00
2018-04-06T01:05:51.592Z,0.00
2018-04-06T01:06:51.667Z,0.00
2018-04-06T01:07:51.549Z,0.00
2018-04-06T01:08:51.556Z,0.00
2018-04-06T01:09:51.547Z,0.00
2018-04-06T01:10:51.622Z,0.00
2018-04-06T01:11:51.403Z,0.00
2018-04-06T01:12:51.543Z,0.00
2018-04-06T01:13:51.606Z,0.00
2018-04-06T01:14:51.462Z,0.00
2018-04-06T01:15:51.423Z,0.00
2018-04-06T01:16:51.408Z,0.00
2018-04-06T01:17:51.381Z,0.00
2018-04-06T01:18:51.218Z,0.00
2018-04-06T01:19:51.273Z,0.00
2018-04-06T01:20:51.338Z,0.00
2018-04-06T01:21:51.280Z,0.00
2018-04-06T01:22:51.170Z,0.00
2018-04-06T01:23:51.128Z,0.00
2018-04-06T01:24:51.456Z,0.00
2018-04-06T01:25:51.255Z,0.00
2018-04-06T01:26:51.033Z,0.00
2018-04-06T01:27:51.123Z,0.00
2018-04-06T01:28:50.936Z,0.00
2018-04-06T01:29:50.946Z,0.00
2018-04-06T01:30:51.031Z,0.00
2018-04-06T01:31:50.922Z,0.00
2018-04-06T01:32:51.003Z,0.00
2018-04-06T01:33:50.940Z,0.00
2018-04-06T01:34:50.741Z,0.00
2018-04-06T01:35:50.703Z,0.00
2018-04-06T01:36:50.680Z,0.00
2018-04-06T01:37:50.668Z,0.00
2018-04-06T01:38:50.618Z,0.00
2018-04-06T01:39:50.604Z,0.00
2018-04-06T01:40:50.593Z,0.00
2018-04-06T01:41:50.581Z,0.00
2018-04-06T01:42:50.562Z,0.00
2018-04-06T01:43:50.563Z,0.00
2018-04-06T01:44:50.632Z,0.00
2018-04-06T01:45:50.513Z,0.00
2018-04-06T01:46:50.525Z,0.00
2018-04-06T01:47:50.496Z,0.00
2018-04-06T01:48:50.448Z,0.00
2018-04-06T01:49:50.374Z,0.00
2018-04-06T01:50:50.444Z,0.00
2018-04-06T01:51:50.481Z,0.00
2018-04-06T01:52:50.522Z,0.00
2018-04-06T01:53:50.367Z,0.00
2018-04-06T01:54:50.442Z,0.00
2018-04-06T01:55:50.372Z,0.00
2018-04-06T01:56:50.400Z,0.00
2018-04-06T01:57:50.222Z,0.00
2018-04-06T01:58:50.376Z,0.00
2018-04-06T01:59:50.273Z,0.00
2018-04-06T02:00:50.266Z,0.00
2018-04-06T02:01:50.129Z,0.00
2018-04-06T02:02:50.131Z,0.00
2018-04-06T02:03:50.213Z,0.00
2018-04-06T02:04:50.018Z,0.00
2018-04-06T02:05:49.961Z,0.00
2018-04-06T02:06:49.948Z,0.00
2018-04-06T02:07:49.969Z,0.00
2018-04-06T02:08:49.897Z,0.00
2018-04-06T02:09:49.873Z,0.00
2018-04-06T02:10:49.870Z,0.00
2018-04-06T02:11:49.845Z,0.00
2018-04-06T02:12:49.793Z,0.00
2018-04-06T02:13:49.770Z,0.00
2018-04-06T02:14:49.808Z,0.00
2018-04-06T02:15:49.715Z,0.00
2018-04-06T02:16:49.726Z,0.00
2018-04-06T02:17:49.705Z,0.00
2018-04-06T02:18:49.655Z,0.00
2018-04-06T02:19:49.629Z,0.00
2018-04-06T02:20:49.603Z,0.00
2018-04-06T02:21:49.622Z,0.00
2018-04-06T02:22:49.574Z,0.00
2018-04-06T02:23:49.540Z,0.00
2018-04-06T02:24:49.529Z,0.00
2018-04-06T02:25:49.467Z,0.00
2018-04-06T02:26:49.456Z,0.00
2018-04-06T02:27:49.450Z,0.00
2018-04-06T02:28:49.398Z,0.00
2018-04-06T02:29:49.424Z,0.00
2018-04-06T02:30:49.356Z,0.00
2018-04-06T02:31:49.334Z,0.00
2018-04-06T02:32:49.314Z,0.00
2018-04-06T02:33:49.276Z,0.00
2018-04-06T02:34:49.256Z,0.00
2018-04-06T02:35:49.249Z,0.00
2018-04-06T02:36:49.236Z,0.00
2018-04-06T02:37:49.173Z,0.00
2018-04-06T02:38:49.152Z,0.00
2018-04-06T02:39:49.125Z,0.00
2018-04-06T02:40:49.123Z,0.00
2018-04-06T02:41:49.096Z,0.00
2018-04-06T02:42:49.061Z,0.00
2018-04-06T02:43:49.062Z,0.00
2018-04-06T02:44:49.014Z,0.00
2018-04-06T02:45:48.976Z,0.00
2018-04-06T02:46:48.987Z,0.00
2018-04-06T02:47:48.926Z,0.00
2018-04-06T02:48:48.928Z,0.00
2018-04-06T02:49:48.892Z,0.00
2018-04-06T02:50:48.883Z,0.00
2018-04-06T02:51:48.845Z,0.00
2018-04-06T02:52:48.837Z,0.00
2018-04-06T02:53:48.777Z,0.00
2018-04-06T02:54:48.773Z,0.00
2018-04-06T02:55:48.746Z,0.00
2018-04-06T02:56:48.740Z,0.00
2018-04-06T02:57:48.682Z,0.00
2018-04-06T02:58:48.674Z,0.00
2018-04-06T02:59:48.665Z,0.00
2018-04-06T03:00:48.607Z,0.00
2018-04-06T03:01:48.597Z,0.00
2018-04-06T03:02:48.564Z,0.00
2018-04-06T03:03:48.535Z,0.00
2018-04-06T03:04:48.510Z,0.00
2018-04-06T03:05:48.524Z,0.00
2018-04-06T03:06:48.466Z,0.00
2018-04-06T03:07:48.454Z,0.00
2018-04-06T03:08:48.449Z,0.00
2018-04-06T03:09:48.402Z,0.00
2018-04-06T03:10:48.380Z,0.00
2018-04-06T03:11:48.411Z,0.00
2018-04-06T03:12:48.314Z,0.00
2018-04-06T03:13:48.299Z,0.00
2018-04-06T03:14:48.258Z,0.00
2018-04-06T03:15:48.274Z,0.00
2018-04-06T03:16:48.207Z,0.00
2018-04-06T03:17:48.211Z,0.00
2018-04-06T03:18:48.195Z,0.00
2018-04-06T03:19:48.137Z,0.00
2018-04-06T03:20:48.142Z,0.00
2018-04-06T03:21:48.101Z,0.00
2018-04-06T03:22:48.094Z,0.00
2018-04-06T03:23:48.040Z,0.00
2018-04-06T03:24:48.019Z,0.00
2018-04-06T03:25:48.022Z,0.00
2018-04-06T03:26:47.975Z,0.00
2018-04-06T03:27:47.947Z,0.00
2018-04-06T03:28:47.942Z,0.00
2018-04-06T03:29:47.907Z,0.00
2018-04-06T03:30:47.949Z,0.00
2018-04-06T03:31:47.857Z,0.00
2018-04-06T03:32:47.851Z,0.00
2018-04-06T03:33:47.821Z,0.00
2018-04-06T03:34:47.833Z,0.00
2018-04-06T03:35:47.753Z,0.00
2018-04-06T03:36:47.726Z,0.00
2018-04-06T03:37:47.714Z,0.00
2018-04-06T03:38:47.736Z,0.00
2018-04-06T03:39:47.636Z,0.00
2018-04-06T03:40:47.647Z,0.00
2018-04-06T03:41:47.635Z,0.00
2018-04-06T03:42:48.483Z,0.00
2018-04-06T03:43:50.952Z,0.00
2018-04-06T03:44:47.574Z,0.00
2018-04-06T03:45:47.541Z,0.00
2018-04-06T03:46:47.469Z,0.00
2018-04-06T03:47:47.462Z,0.00
2018-04-06T03:48:47.440Z,0.00
2018-04-06T03:49:47.401Z,0.00
2018-04-06T03:50:47.380Z,0.00
2018-04-06T03:51:47.362Z,0.00
2018-04-06T03:52:47.325Z,0.00
2018-04-06T03:53:47.291Z,0.00
2018-04-06T03:54:47.300Z,0.00
2018-04-06T03:55:47.267Z,0.00
2018-04-06T03:56:47.216Z,0.00
2018-04-06T03:57:47.224Z,0.00
2018-04-06T03:58:47.191Z,0.00
2018-04-06T03:59:47.172Z,0.00
2018-04-06T04:00:47.149Z,0.00
2018-04-06T04:01:47.146Z,0.00
2018-04-06T04:02:47.081Z,0.00
2018-04-06T04:03:47.053Z,0.00
2018-04-06T04:04:47.015Z,0.00
2018-04-06T04:05:47.009Z,0.00
2018-04-06T04:06:46.967Z,0.00
2018-04-06T04:07:46.935Z,0.00
2018-04-06T04:08:46.913Z,0.00
2018-04-06T04:09:46.918Z,0.00
2018-04-06T04:10:46.860Z,0.00
2018-04-06T04:11:46.861Z,0.00
2018-04-06T04:12:46.833Z,0.00
2018-04-06T04:13:46.860Z,0.00
2018-04-06T04:14:46.784Z,0.00
2018-04-06T04:15:46.744Z,0.00
2018-04-06T04:16:46.743Z,0.00
2018-04-06T04:17:46.696Z,0.00
2018-04-06T04:18:46.747Z,0.00
2018-04-06T04:19:46.687Z,0.00
2018-04-06T04:20:46.650Z,0.00
2018-04-06T04:21:46.584Z,0.00
2018-04-06T04:22:46.588Z,0.00
2018-04-06T04:23:46.536Z,0.00
2018-04-06T04:24:46.517Z,0.00
2018-04-06T04:25:46.509Z,0.00
2018-04-06T04:26:46.473Z,0.00
2018-04-06T04:27:46.464Z,0.00
2018-04-06T04:28:46.415Z,0.00
2018-04-06T04:29:46.409Z,0.00
2018-04-06T04:30:46.375Z,0.00
2018-04-06T04:31:46.330Z,0.00
2018-04-06T04:32:46.332Z,0.00
2018-04-06T04:33:46.273Z,0.00
2018-04-06T04:34:46.286Z,0.00
2018-04-06T04:35:46.260Z,0.00
2018-04-06T04:36:46.211Z,0.00
2018-04-06T04:37:46.205Z,0.00
2018-04-06T04:38:46.165Z,0.00
2018-04-06T04:39:46.134Z,5.63
2018-04-06T04:40:46.132Z,5.63
2018-04-06T04:41:46.095Z,5.63
2018-04-06T04:42:46.069Z,5.63
2018-04-06T04:43:46.043Z,5.63
2018-04-06T04:44:46.009Z,5.63
2018-04-06T04:45:46.029Z,5.63
2018-04-06T04:46:46.019Z,5.63
2018-04-06T04:47:45.970Z,5.63
2018-04-06T04:48:45.944Z,11.25
2018-04-06T04:49:45.923Z,11.25
2018-04-06T04:50:45.872Z,11.25
2018-04-06T04:51:45.831Z,11.25
2018-04-06T04:52:45.813Z,11.25
2018-04-06T04:53:45.787Z,16.88
2018-04-06T04:54:45.761Z,16.88
2018-04-06T04:55:45.743Z,16.88
2018-04-06T04:56:45.724Z,16.88
2018-04-06T04:57:45.678Z,22.50
2018-04-06T04:58:45.724Z,22.50
2018-04-06T04:59:45.635Z,22.50
2018-04-06T05:00:45.607Z,22.50
2018-04-06T05:01:45.583Z,22.50
2018-04-06T05:02:45.561Z,28.13
2018-04-06T05:03:45.548Z,28.13
2018-04-06T05:04:45.510Z,28.13
2018-04-06T05:05:45.505Z,28.13
2018-04-06T05:06:45.478Z,33.75
2018-04-06T05:07:45.438Z,33.75
2018-04-06T05:08:45.415Z,33.75
2018-04-06T05:09:45.413Z,33.75
2018-04-06T05:10:45.390Z,39.38
2018-04-06T05:11:45.344Z,39.38
2018-04-06T05:12:45.317Z,39.38
2018-04-06T05:13:45.322Z,39.38
2018-04-06T05:14:45.283Z,45.00
2018-04-06T05:15:45.246Z,45.00
2018-04-06T05:16:45.220Z,45.00
2018-04-06T05:17:45.186Z,45.00
2018-04-06T05:18:45.164Z,45.00
2018-04-06T05:19:45.147Z,45.00
2018-04-06T05:20:45.129Z,50.63
2018-04-06T05:21:45.105Z,50.63
2018-04-06T05:22:45.065Z,50.63
2018-04-06T05:23:45.040Z,56.25
2018-04-06T05:24:45.007Z,56.25
2018-04-06T05:25:44.978Z,56.25
2018-04-06T05:26:44.990Z,61.88
2018-04-06T05:27:44.938Z,61.88
2018-04-06T05:28:44.918Z,61.88
2018-04-06T05:29:44.899Z,61.88
2018-04-06T05:30:44.860Z,67.50
2018-04-06T05:31:44.831Z,67.50
2018-04-06T05:32:44.848Z,67.50
2018-04-06T05:33:44.772Z,73.13
2018-04-06T05:34:44.790Z,73.13
2018-04-06T05:35:44.738Z,73.13
2018-04-06T05:36:44.715Z,78.75
2018-04-06T05:37:44.699Z,78.75
2018-04-06T05:38:44.732Z,78.75
2018-04-06T05:39:44.664Z,84.38
2018-04-06T05:40:44.680Z,84.38
2018-04-06T05:41:44.585Z,90.00
2018-04-06T05:42:44.572Z,90.00
2018-04-06T05:43:44.536Z,90.00
2018-04-06T05:44:44.506Z,95.63
2018-04-06T05:45:44.510Z,95.63
2018-04-06T05:46:44.451Z,101.25
2018-04-06T05:47:44.427Z,101.25
2018-04-06T05:48:44.408Z,101.25
2018-04-06T05:49:44.415Z,101.25
2018-04-06T05:50:44.350Z,106.88
2018-04-06T05:51:44.357Z,106.88
2018-04-06T05:52:44.310Z,106.88
2018-04-06T05:53:44.287Z,106.88
2018-04-06T05:54:44.260Z,112.50
2018-04-06T05:55:44.232Z,112.50
2018-04-06T05:56:44.230Z,112.50
2018-04-06T05:57:44.222Z,118.13
2018-04-06T05:58:44.173Z,118.13
2018-04-06T05:59:44.162Z,123.75
2018-04-06T06:00:44.167Z,123.75
2018-04-06T06:01:44.115Z,123.75
2018-04-06T06:02:44.071Z,129.38
2018-04-06T06:03:44.039Z,129.38
2018-04-06T06:04:44.058Z,129.38
2018-04-06T06:05:44.049Z,135.00
2018-04-06T06:06:43.956Z,140.63
2018-04-06T06:07:43.935Z,140.63
2018-04-06T06:08:43.932Z,140.63
2018-04-06T06:09:43.943Z,140.63
2018-04-06T06:10:43.869Z,140.63
2018-04-06T06:11:43.864Z,146.25
2018-04-06T06:12:43.822Z,146.25
2018-04-06T06:13:43.787Z,146.25
2018-04-06T06:14:43.791Z,146.25
2018-04-06T06:15:43.755Z,151.88
2018-04-06T06:16:43.737Z,174.38
2018-04-06T06:17:43.797Z,202.50
2018-04-06T06:18:43.655Z,241.88
2018-04-06T06:19:43.636Z,348.75
2018-04-06T06:20:43.652Z,438.75
2018-04-06T06:21:43.633Z,466.88
2018-04-06T06:22:43.624Z,483.75
2018-04-06T06:23:43.536Z,489.38
2018-04-06T06:24:43.903Z,466.88
2018-04-06T06:25:43.510Z,466.88
2018-04-06T06:26:43.583Z,506.25
2018-04-06T06:27:43.450Z,495.00
2018-04-06T06:28:43.416Z,478.13
2018-04-06T06:29:43.413Z,478.13
2018-04-06T06:30:43.383Z,450.00
2018-04-06T06:31:43.350Z,405.00
2018-04-06T06:32:43.340Z,455.63
2018-04-06T06:33:43.323Z,506.25
2018-04-06T06:34:43.306Z,506.25
2018-04-06T06:35:43.314Z,472.50
2018-04-06T06:36:43.277Z,461.25
2018-04-06T06:37:43.240Z,551.25
2018-04-06T06:38:43.193Z,556.88
2018-04-06T06:39:43.177Z,573.75
2018-04-06T06:40:43.154Z,607.50
2018-04-06T06:41:43.131Z,613.13
2018-04-06T06:42:43.132Z,540.00
2018-04-06T06:43:43.094Z,511.88
2018-04-06T06:44:43.074Z,511.88
2018-04-06T06:45:43.077Z,523.13
2018-04-06T06:46:43.025Z,472.50
2018-04-06T06:47:43.002Z,489.38
2018-04-06T06:48:42.980Z,579.38
2018-04-06T06:49:42.983Z,472.50
2018-04-06T06:50:42.940Z,455.63
2018-04-06T06:51:42.914Z,483.75
2018-04-06T06:52:42.980Z,376.88
2018-04-06T06:53:42.921Z,388.13
2018-04-06T06:54:42.858Z,590.63
2018-04-06T06:55:42.861Z,663.75
2018-04-06T06:56:42.837Z,551.25
2018-04-06T06:57:42.815Z,483.75
2018-04-06T06:58:42.779Z,416.25
2018-04-06T06:59:42.758Z,416.25
2018-04-06T07:00:42.762Z,455.63
2018-04-06T07:01:51.850Z,421.88
2018-04-06T07:03:38.063Z,478.13
2018-04-06T07:04:37.792Z,551.25
2018-04-06T07:06:33.726Z,849.38
2018-04-06T07:07:34.000Z,916.88
2018-04-06T07:08:33.947Z,832.50
2018-04-06T07:09:34.915Z,838.13
2018-04-06T07:10:33.923Z,849.38
2018-04-06T07:11:33.518Z,900.00
2018-04-06T07:12:33.497Z,821.25
2018-04-06T07:13:33.518Z,748.13
2018-04-06T07:14:33.451Z,911.25
2018-04-06T07:15:33.456Z,967.50
2018-04-06T07:16:33.404Z,1001.25
2018-04-06T07:17:33.406Z,939.38
2018-04-06T07:18:33.362Z,815.63
2018-04-06T07:19:33.374Z,669.38
2018-04-06T07:20:33.322Z,641.25
2018-04-06T07:21:33.329Z,956.25
2018-04-06T07:22:33.468Z,1091.25
2018-04-06T07:23:33.303Z,1102.50
2018-04-06T07:24:33.245Z,1074.38
2018-04-06T07:25:33.224Z,1046.25
2018-04-06T07:26:33.703Z,1057.50
2018-04-06T07:27:33.241Z,1085.63
2018-04-06T07:28:33.195Z,1074.38
2018-04-06T07:29:33.177Z,1074.38
2018-04-06T07:30:33.146Z,950.63
2018-04-06T07:31:33.141Z,984.38
2018-04-06T07:32:33.146Z,1170.00
2018-04-06T07:33:33.125Z,1260.00
2018-04-06T07:34:33.105Z,1282.50
2018-04-06T07:35:33.075Z,1288.13
2018-04-06T07:36:33.079Z,1316.25
2018-04-06T07:37:33.034Z,1327.50
2018-04-06T07:38:33.014Z,1327.50
2018-04-06T07:39:33.009Z,1203.75
2018-04-06T07:40:32.987Z,1271.25
2018-04-06T07:41:33.023Z,1389.38
2018-04-06T07:42:32.975Z,1417.50
2018-04-06T07:43:32.936Z,1434.38
2018-04-06T07:44:32.947Z,1411.88
2018-04-06T07:45:32.959Z,1310.63
2018-04-06T07:46:32.904Z,1400.63
2018-04-06T07:47:32.881Z,1513.13
2018-04-06T07:48:32.849Z,1530.00
2018-04-06T07:49:32.864Z,1535.63
2018-04-06T07:50:32.854Z,1552.50
2018-04-06T07:51:32.856Z,1563.75
2018-04-06T07:52:32.855Z,1569.38
2018-04-06T07:53:32.815Z,1597.50
2018-04-06T07:54:32.801Z,1603.13
2018-04-06T07:55:32.783Z,1614.38
2018-04-06T07:56:32.762Z,1625.63
2018-04-06T07:57:32.759Z,1642.50
2018-04-06T07:58:32.769Z,1665.00
2018-04-06T07:59:32.725Z,1698.75
2018-04-06T08:00:32.726Z,1715.63
2018-04-06T08:01:32.713Z,1732.50
2018-04-06T08:02:32.689Z,1755.00
2018-04-06T08:03:32.684Z,1794.38
2018-04-06T08:04:32.649Z,1833.75
2018-04-06T08:05:32.662Z,1867.50
2018-04-06T08:06:32.665Z,1856.25
2018-04-06T08:07:32.624Z,1845.00
2018-04-06T08:08:32.622Z,1845.00
2018-04-06T08:09:32.630Z,1861.88
2018-04-06T08:10:32.612Z,1861.88
2018-04-06T08:11:32.594Z,1884.38
2018-04-06T08:12:32.591Z,1884.38
2018-04-06T08:13:32.567Z,1861.88
2018-04-06T08:14:32.555Z,1878.75
2018-04-06T08:15:32.552Z,1929.38
2018-04-06T08:16:32.545Z,1912.50
2018-04-06T08:17:32.692Z,1929.38
2018-04-06T08:18:32.542Z,2008.13
2018-04-06T08:19:32.507Z,2053.13
2018-04-06T08:20:33.096Z,2047.50
2018-04-06T08:21:32.485Z,2030.63
2018-04-06T08:22:32.524Z,2075.63
2018-04-06T08:23:32.456Z,2160.00
2018-04-06T08:24:32.476Z,2109.38
2018-04-06T08:25:32.464Z,2075.63
2018-04-06T08:26:32.462Z,2131.88
2018-04-06T08:27:32.484Z,2154.38
2018-04-06T08:28:32.425Z,2160.00
2018-04-06T08:29:32.414Z,2115.00
2018-04-06T08:30:32.409Z,2148.75
2018-04-06T08:31:32.388Z,2143.13
2018-04-06T08:32:32.380Z,2165.63
2018-04-06T08:33:32.361Z,2165.63
2018-04-06T08:34:32.353Z,2188.13
2018-04-06T08:35:32.358Z,2193.75
2018-04-06T08:36:32.378Z,2205.00
2018-04-06T08:37:32.417Z,2221.88
2018-04-06T08:38:32.333Z,2311.88
2018-04-06T08:39:32.306Z,2306.25
2018-04-06T08:40:32.308Z,2283.75
2018-04-06T08:41:32.332Z,2323.13
2018-04-06T08:42:32.311Z,2379.38
2018-04-06T08:43:32.304Z,2446.88
2018-04-06T08:44:32.326Z,2424.38
2018-04-06T08:45:32.321Z,2407.50
2018-04-06T08:46:32.342Z,2407.50
2018-04-06T08:47:32.279Z,2458.13
2018-04-06T08:48:32.289Z,2570.63
2018-04-06T08:49:32.256Z,2688.75
2018-04-06T08:50:32.239Z,2643.75
2018-04-06T08:51:32.278Z,2604.38
2018-04-06T08:52:32.271Z,2688.75
2018-04-06T08:53:32.255Z,2739.38
2018-04-06T08:54:32.312Z,2806.88
2018-04-06T08:55:32.195Z,2857.50
2018-04-06T08:56:32.244Z,2840.63
2018-04-06T08:57:32.209Z,2958.75
2018-04-06T08:58:32.208Z,2913.75
2018-04-06T08:59:32.217Z,2880.00
2018-04-06T09:00:32.219Z,2908.13
2018-04-06T09:01:32.284Z,2891.25
2018-04-06T09:02:32.266Z,2885.63
2018-04-06T09:03:32.315Z,2936.25
2018-04-06T09:04:32.194Z,2868.75
2018-04-06T09:05:32.142Z,2874.38
2018-04-06T09:06:32.165Z,2823.75
2018-04-06T09:07:32.247Z,2773.13
2018-04-06T09:08:32.130Z,2716.88
2018-04-06T09:09:32.376Z,2728.13
2018-04-06T09:10:32.151Z,2806.88
2018-04-06T09:11:32.140Z,2863.13
2018-04-06T09:12:32.137Z,2981.25
2018-04-06T09:13:32.106Z,2975.63
2018-04-06T09:14:32.103Z,2998.13
2018-04-06T09:15:32.127Z,3065.63
2018-04-06T09:16:32.138Z,3110.63
2018-04-06T09:17:32.081Z,3110.63
2018-04-06T09:18:32.083Z,3065.63
2018-04-06T09:19:32.089Z,3138.75
2018-04-06T09:20:32.110Z,3082.50
2018-04-06T09:21:32.173Z,3037.50
2018-04-06T09:22:32.185Z,3144.38
2018-04-06T09:23:32.026Z,3240.00
2018-04-06T09:24:32.032Z,3465.00
2018-04-06T09:25:32.132Z,3532.50
2018-04-06T09:26:32.039Z,3706.88
2018-04-06T09:27:32.036Z,3819.38
2018-04-06T09:28:32.039Z,3898.13
2018-04-06T09:29:32.023Z,3751.88
2018-04-06T09:30:32.040Z,3695.63
2018-04-06T09:31:32.049Z,3751.88
2018-04-06T09:32:32.007Z,3667.50
2018-04-06T09:33:32.039Z,3830.63
2018-04-06T09:34:32.026Z,3898.13
2018-04-06T09:35:31.990Z,3926.25
2018-04-06T09:36:31.998Z,3796.88
2018-04-06T09:37:32.006Z,3926.25
2018-04-06T09:38:31.977Z,4106.25
2018-04-06T09:39:31.973Z,3909.38
2018-04-06T09:40:31.998Z,4072.50
2018-04-06T09:41:31.960Z,3881.25
2018-04-06T09:42:31.972Z,3701.25
2018-04-06T09:43:31.964Z,3487.50
2018-04-06T09:44:31.953Z,3301.88
2018-04-06T09:45:31.962Z,3285.00
2018-04-06T09:46:32.176Z,3262.50
2018-04-06T09:47:31.948Z,3240.00
2018-04-06T09:48:31.962Z,3133.13
2018-04-06T09:49:32.001Z,3009.38
2018-04-06T09:50:32.078Z,2925.00
2018-04-06T09:51:32.038Z,2829.38
2018-04-06T09:52:31.949Z,2790.00
2018-04-06T09:53:31.999Z,2795.63
2018-04-06T09:54:31.972Z,2784.38
2018-04-06T09:55:31.930Z,2761.88
2018-04-06T09:56:31.908Z,2739.38
2018-04-06T09:57:31.924Z,2688.75
2018-04-06T09:58:31.922Z,2688.75
2018-04-06T09:59:32.620Z,2643.75
2018-04-06T10:00:31.952Z,2643.75
2018-04-06T10:01:31.892Z,2649.38
2018-04-06T10:02:31.937Z,2638.13
2018-04-06T10:03:31.906Z,2632.50
2018-04-06T10:04:31.900Z,2610.00
2018-04-06T10:05:31.898Z,2638.13
2018-04-06T10:06:31.887Z,2615.63
2018-04-06T10:07:31.854Z,2632.50
2018-04-06T10:08:31.870Z,2610.00
2018-04-06T10:09:31.910Z,2604.38
2018-04-06T10:10:31.851Z,2615.63
2018-04-06T10:11:31.854Z,2587.50
2018-04-06T10:12:31.850Z,2576.25
2018-04-06T10:13:31.833Z,2576.25
2018-04-06T10:14:31.841Z,2581.88
2018-04-06T10:15:31.842Z,2559.38
2018-04-06T10:16:31.870Z,2565.00
2018-04-06T10:17:31.831Z,2576.25
2018-04-06T10:18:31.872Z,2570.63
2018-04-06T10:19:31.838Z,2593.13
2018-04-06T10:20:31.796Z,2581.88
2018-04-06T10:21:31.825Z,2581.88
2018-04-06T10:22:31.812Z,2587.50
2018-04-06T10:23:31.817Z,2593.13
2018-04-06T10:24:31.797Z,2587.50
2018-04-06T10:25:31.833Z,2581.88
2018-04-06T10:26:31.827Z,2593.13
2018-04-06T10:27:31.809Z,2604.38
2018-04-06T10:28:31.788Z,2615.63
2018-04-06T10:29:31.792Z,2626.88
2018-04-06T10:30:31.782Z,2632.50
2018-04-06T10:31:31.813Z,2638.13
2018-04-06T10:32:31.816Z,2632.50
2018-04-06T10:33:31.789Z,2632.50
2018-04-06T10:34:31.865Z,2626.88
2018-04-06T10:35:31.771Z,2638.13
2018-04-06T10:36:31.810Z,2649.38
2018-04-06T10:37:31.793Z,2655.00
2018-04-06T10:38:31.814Z,2660.63
2018-04-06T10:39:31.765Z,2655.00
2018-04-06T10:40:31.937Z,2660.63
2018-04-06T10:41:32.052Z,2660.63
2018-04-06T10:42:31.939Z,2688.75
2018-04-06T10:43:31.962Z,2694.38
2018-04-06T10:44:31.849Z,2700.00
2018-04-06T10:45:31.892Z,2716.88
2018-04-06T10:46:31.882Z,2728.13
2018-04-06T10:47:31.950Z,2739.38
2018-04-06T10:48:31.958Z,2750.63
2018-04-06T10:49:31.768Z,2761.88
2018-04-06T10:50:31.845Z,2761.88
2018-04-06T10:51:32.038Z,2790.00
2018-04-06T10:52:33.960Z,2806.88
2018-04-06T10:53:31.949Z,2806.88
2018-04-06T10:54:32.160Z,2801.25
2018-04-06T10:55:31.830Z,2806.88
2018-04-06T10:56:31.910Z,2829.38
2018-04-06T10:57:32.261Z,2835.00
2018-04-06T10:58:31.903Z,2851.88
2018-04-06T10:59:31.890Z,2874.38
2018-04-06T11:00:31.907Z,2896.88
2018-04-06T11:01:31.756Z,2891.25
2018-04-06T11:02:31.861Z,2885.63
2018-04-06T11:03:31.804Z,2868.75
2018-04-06T11:04:31.758Z,2868.75
2018-04-06T11:05:31.863Z,2885.63
2018-04-06T11:06:32.024Z,2902.50
2018-04-06T11:07:31.848Z,2908.13
2018-04-06T11:08:31.868Z,2913.75
2018-04-06T11:09:31.843Z,2919.38
2018-04-06T11:10:31.741Z,2936.25
2018-04-06T11:11:31.697Z,2970.00
2018-04-06T11:12:31.694Z,2986.88
2018-04-06T11:13:31.673Z,3009.38
2018-04-06T11:14:31.682Z,3015.00
2018-04-06T11:15:31.675Z,2998.13
2018-04-06T11:16:31.678Z,3026.25
2018-04-06T11:17:31.677Z,3031.88
2018-04-06T11:18:31.718Z,3031.88
2018-04-06T11:19:31.686Z,3043.13
2018-04-06T11:20:31.644Z,3037.50
2018-04-06T11:21:31.676Z,3037.50
2018-04-06T11:22:31.660Z,3037.50
2018-04-06T11:23:31.698Z,3048.75
2018-04-06T11:24:31.652Z,3026.25
2018-04-06T11:25:31.652Z,3026.25
2018-04-06T11:26:31.698Z,3037.50
2018-04-06T11:27:31.666Z,3060.00
2018-04-06T11:28:31.658Z,3054.38
2018-04-06T11:29:31.649Z,3060.00
2018-04-06T11:30:31.651Z,3065.63
2018-04-06T11:31:31.657Z,3076.88
2018-04-06T11:32:31.657Z,3065.63
2018-04-06T11:33:31.673Z,3076.88
2018-04-06T11:34:31.682Z,3099.38
2018-04-06T11:35:31.675Z,3105.00
2018-04-06T11:36:31.626Z,3093.75
2018-04-06T11:37:31.658Z,3121.88
2018-04-06T11:38:31.644Z,3116.25
2018-04-06T11:39:31.641Z,3105.00
2018-04-06T11:40:31.653Z,3116.25
2018-04-06T11:41:31.640Z,3121.88
2018-04-06T11:42:31.648Z,3116.25
2018-04-06T11:43:31.686Z,3110.63
2018-04-06T11:44:31.644Z,3127.50
2018-04-06T11:45:31.653Z,3121.88
2018-04-06T11:46:31.629Z,3121.88
2018-04-06T11:47:31.687Z,3121.88
2018-04-06T11:48:31.650Z,3121.88
2018-04-06T11:49:31.652Z,3105.00
2018-04-06T11:50:31.688Z,3088.13
2018-04-06T11:51:31.682Z,3093.75
2018-04-06T11:52:31.655Z,3099.38
2018-04-06T11:53:31.662Z,3088.13
2018-04-06T11:54:31.630Z,3082.50
2018-04-06T11:55:31.656Z,3065.63
2018-04-06T11:56:31.652Z,3082.50
2018-04-06T11:57:31.688Z,3076.88
2018-04-06T11:58:31.697Z,3071.25
2018-04-06T11:59:31.637Z,3088.13
2018-04-06T12:00:31.643Z,3093.75
2018-04-06T12:01:31.673Z,3076.88
2018-04-06T12:02:31.627Z,3071.25
2018-04-06T12:03:31.623Z,3071.25
2018-04-06T12:04:31.633Z,3082.50
2018-04-06T12:05:31.617Z,3076.88
2018-04-06T12:06:31.618Z,3076.88
2018-04-06T12:07:31.672Z,3088.13
2018-04-06T12:08:31.648Z,3093.75
2018-04-06T12:09:31.621Z,3105.00
2018-04-06T12:10:31.609Z,3105.00
2018-04-06T12:11:31.606Z,3099.38
2018-04-06T12:12:31.640Z,3099.38
2018-04-06T12:13:31.565Z,3093.75
2018-04-06T12:14:31.580Z,3105.00
2018-04-06T12:15:31.569Z,3099.38
2018-04-06T12:16:31.567Z,3082.50
2018-04-06T12:17:31.557Z,3071.25
2018-04-06T12:18:31.662Z,3043.13
2018-04-06T12:19:31.572Z,3031.88
2018-04-06T12:20:31.559Z,3037.50
2018-04-06T12:21:31.553Z,3031.88
2018-04-06T12:22:32.463Z,3037.50
2018-04-06T12:23:31.540Z,3037.50
2018-04-06T12:24:31.547Z,3043.13
2018-04-06T12:25:31.708Z,3031.88
2018-04-06T12:26:31.534Z,3031.88
2018-04-06T12:27:31.538Z,3037.50
2018-04-06T12:28:31.598Z,3037.50
2018-04-06T12:29:31.546Z,3020.63
2018-04-06T12:30:31.577Z,3031.88
2018-04-06T12:31:31.518Z,3031.88
2018-04-06T12:32:31.573Z,3026.25
2018-04-06T12:33:31.727Z,3031.88
2018-04-06T12:34:31.522Z,3009.38
2018-04-06T12:35:31.546Z,3009.38
2018-04-06T12:36:31.541Z,2964.38
2018-04-06T12:37:31.547Z,2936.25
2018-04-06T12:38:31.596Z,2913.75
2018-04-06T12:39:31.515Z,2896.88
2018-04-06T12:40:31.494Z,2880.00